Time;durP1;ratioP1;P1;durP2;ratioP2;P2;SDS_P1;SDS_P2;PMS_P1;PMS_P2;Temp;Humidity;BMP_temperature;BMP_pressure;BME280_temperature;BME280_humidity;BME280_pressure;Samples;Min_cycle;Max_cycle;Signal;HPM_P1;HPM_P2
2022/12/31 00:01:27;;;;;;;;;2.25;2.25;;;;;14.42;93.77;99988.72;5036019;28;45291;-65
2022/12/31 00:03:53;;;;;;;;;1.50;1.50;;;;;14.42;93.88;99990.53;5036714;28;45493;-65
2022/12/31 00:06:26;;;;;;;;;2.75;2.75;;;;;14.46;94.26;100003.44;5035687;28;46117;-63
2022/12/31 00:08:54;;;;;;;;;13.25;13.25;;;;;14.46;94.63;100016.69;5035703;28;45376;-64
2022/12/31 00:11:21;;;;;;;;;1.33;1.33;;;;;14.44;94.74;99992.13;5035919;28;45417;-64
2022/12/31 00:13:46;;;;;;;;;3.00;3.00;;;;;14.40;94.96;100003.84;5036082;28;45171;-66
2022/12/31 00:16:18;;;;;;;;;2.00;2.00;;;;;14.34;94.57;99998.97;5035409;28;45312;-65
2022/12/31 00:18:45;;;;;;;;;2.00;2.00;;;;;14.39;95.06;100011.91;5035772;28;45380;-67
2022/12/31 00:21:12;;;;;;;;;3.00;3.00;;;;;14.36;95.23;100015.59;5035883;28;45297;-68
2022/12/31 00:23:38;;;;;;;;;2.00;2.00;;;;;14.32;95.38;100006.16;5036197;28;45585;-66
2022/12/31 00:26:09;;;;;;;;;0.50;0.50;;;;;14.33;95.12;100023.72;5036039;28;45381;-64
2022/12/31 00:28:37;;;;;;;;;2.25;2.25;;;;;14.32;95.14;100014.09;5035834;28;45412;-63
2022/12/31 00:31:09;;;;;;;;;1.00;1.00;;;;;14.31;94.96;100015.03;5036030;28;45335;-64
2022/12/31 00:33:35;;;;;;;;;1.00;1.00;;;;;14.34;94.96;100014.84;5036175;28;45447;-64
2022/12/31 00:36:05;;;;;;;;;3.25;3.25;;;;;14.34;94.64;100036.00;5035565;28;46466;-65
2022/12/31 00:38:30;;;;;;;;;2.00;2.00;;;;;14.38;94.40;100050.72;5018132;28;45572;-65
2022/12/31 00:40:56;;;;;;;;;2.50;2.50;;;;;14.39;94.16;100030.44;5035991;28;45446;-64
2022/12/31 00:43:21;;;;;;;;;1.00;1.00;;;;;14.44;93.65;100039.75;5033234;28;45756;-63
2022/12/31 00:45:46;;;;;;;;;2.00;2.00;;;;;14.44;93.47;100023.03;5033546;28;45558;-64
2022/12/31 00:48:12;;;;;;;;;2.00;2.00;;;;;14.48;94.28;100031.59;5033374;28;45483;-62
2022/12/31 00:50:37;;;;;;;;;4.50;4.50;;;;;14.45;94.35;100025.56;5033740;28;45439;-67
2022/12/31 00:53:02;;;;;;;;;1.00;1.00;;;;;14.41;94.90;100036.47;5033831;28;45568;-63
2022/12/31 00:55:29;;;;;;;;;2.00;2.00;;;;;14.35;95.14;100045.63;5033031;28;48674;-67
2022/12/31 00:57:54;;;;;;;;;0.00;0.00;;;;;14.33;95.06;100039.59;5034407;28;45488;-62
2022/12/31 01:00:20;;;;;;;;;1.00;1.00;;;;;14.29;95.13;100038.09;5035261;28;45840;-63
2022/12/31 01:02:45;;;;;;;;;3.00;3.00;;;;;14.31;94.92;100041.50;5035783;28;45427;-62
2022/12/31 01:05:10;;;;;;;;;1.75;1.00;;;;;14.34;94.75;100041.28;5035435;28;46163;-64
2022/12/31 01:07:37;;;;;;;;;1.00;1.00;;;;;14.31;94.39;100036.19;5034969;28;53276;-63
2022/12/31 01:10:03;;;;;;;;;0.00;0.00;;;;;14.38;94.42;100052.53;5034821;28;45398;-62
2022/12/31 01:12:28;;;;;;;;;2.00;2.00;;;;;14.38;93.82;100050.72;5035249;28;45673;-63
2022/12/31 01:14:53;;;;;;;;;1.00;1.00;;;;;14.46;93.66;100059.00;5035183;28;46255;-65
2022/12/31 01:17:18;;;;;;;;;1.00;1.00;;;;;14.46;93.39;100069.59;5035143;28;45317;-63
2022/12/31 01:19:44;;;;;;;;;2.00;2.00;;;;;14.53;93.55;100066.56;5035317;28;45290;-66
2022/12/31 01:22:09;;;;;;;;;0.00;0.00;;;;;14.55;92.91;100062.00;5034118;28;45474;-64
2022/12/31 01:24:34;;;;;;;;;1.00;1.00;;;;;14.57;92.64;100070.69;5017362;28;47011;-67
2022/12/31 01:27:00;;;;;;;;;2.00;2.00;;;;;14.65;91.99;100071.03;5035196;28;45288;-65
2022/12/31 01:29:25;;;;;;;;;0.00;0.00;;;;;14.55;91.83;100036.41;5035090;28;50551;-64
2022/12/31 01:31:50;;;;;;;;;1.50;1.50;;;;;14.70;91.69;100079.56;5035417;28;45324;-65
2022/12/31 01:34:16;;;;;;;;;0.67;0.67;;;;;14.71;91.38;100072.50;5033627;28;47335;-66
2022/12/31 01:36:41;;;;;;;;;0.25;0.25;;;;;14.73;91.46;100082.00;5036815;28;45372;-65
2022/12/31 01:39:08;;;;;;;;;1.00;1.00;;;;;14.77;91.47;100089.75;5035248;28;45366;-65
2022/12/31 01:41:42;;;;;;;;;1.00;1.00;;;;;14.72;91.37;100072.38;5036626;28;45262;-64
2022/12/31 01:44:10;;;;;;;;;2.00;2.00;;;;;14.79;90.88;100091.34;5020145;28;45486;-65
2022/12/31 01:46:44;;;;;;;;;0.00;0.00;;;;;14.82;90.56;100104.41;5036942;28;45194;-65
2022/12/31 01:49:12;;;;;;;;;1.00;1.00;;;;;14.85;90.76;100103.34;5036396;28;45411;-65
2022/12/31 01:51:40;;;;;;;;;1.00;1.00;;;;;14.88;90.10;100105.81;5035794;28;45487;-65
2022/12/31 01:54:09;;;;;;;;;1.00;1.00;;;;;14.88;90.05;100101.34;5017303;28;46022;-64
2022/12/31 01:56:37;;;;;;;;;1.00;1.00;;;;;14.92;89.87;100101.13;5039926;28;45343;-64
2022/12/31 01:59:06;;;;;;;;;1.00;1.00;;;;;14.92;89.80;100106.44;5040135;28;45290;-64
2022/12/31 02:01:35;;;;;;;;;1.00;1.00;;;;;14.92;89.80;100112.59;5038587;28;45355;-63
2022/12/31 02:04:06;;;;;;;;;1.00;1.00;;;;;14.95;89.39;100104.44;5037977;28;45580;-63
2022/12/31 02:06:37;;;;;;;;;1.00;1.00;;;;;14.98;89.32;100114.84;5037998;28;45466;-63
2022/12/31 02:09:03;;;;;;;;;0.00;0.00;;;;;15.00;88.84;100107.63;5038302;28;45401;-63
2022/12/31 02:11:34;;;;;;;;;1.00;0.00;;;;;15.03;88.50;100111.88;5038505;28;45225;-62
2022/12/31 02:14:03;;;;;;;;;1.00;1.00;;;;;15.05;88.58;100109.97;5019916;28;47247;-63
2022/12/31 02:16:39;;;;;;;;;1.00;1.00;;;;;15.08;88.35;100098.34;5037731;28;45250;-65
2022/12/31 02:19:26;;;;;;;;;1.00;1.00;;;;;15.10;87.38;100099.06;5038388;28;45254;-63
2022/12/31 02:22:25;;;;;;;;;1.00;1.00;;;;;15.11;87.25;100104.25;5038805;28;45373;-66
2022/12/31 02:25:17;;;;;;;;;1.00;1.00;;;;;14.93;87.22;100092.25;5020197;28;47205;-62
2022/12/31 02:28:20;;;;;;;;;0.00;0.00;;;;;15.13;86.90;100097.06;5037853;28;45443;-62
2022/12/31 02:30:57;;;;;;;;;1.00;1.00;;;;;15.15;86.54;100115.50;5037878;28;45600;-64
2022/12/31 02:33:37;;;;;;;;;1.00;1.00;;;;;15.16;86.16;100111.91;5037738;28;45375;-63
2022/12/31 02:36:17;;;;;;;;;1.00;1.00;;;;;15.17;86.43;100111.78;5037091;28;46463;-64
2022/12/31 02:38:45;;;;;;;;;3.25;3.25;;;;;15.18;86.12;100117.94;5037361;28;45316;-61
2022/12/31 02:41:48;;;;;;;;;0.33;0.33;;;;;15.20;85.96;100113.41;5037715;28;45273;-63
2022/12/31 02:44:19;;;;;;;;;0.00;0.00;;;;;15.21;85.67;100119.53;5037644;28;46189;-65
2022/12/31 02:46:51;;;;;;;;;3.75;3.75;;;;;15.23;85.22;100139.69;5037449;28;46173;-62
2022/12/31 02:49:27;;;;;;;;;0.33;0.33;;;;;15.24;85.20;100129.91;5037348;28;45245;-62
2022/12/31 02:52:02;;;;;;;;;0.00;0.00;;;;;15.25;85.25;100139.56;5037352;28;45295;-62
2022/12/31 02:54:35;;;;;;;;;1.00;1.00;;;;;15.26;85.39;100142.13;5037688;28;45190;-61
2022/12/31 02:57:00;;;;;;;;;2.00;2.00;;;;;15.24;85.47;100141.38;5037064;28;45360;-63
2022/12/31 03:02:25;;;;;;;;;0.00;0.00;;;;;15.28;84.65;100134.06;5037396;28;45415;-64
2022/12/31 03:04:53;;;;;;;;;1.00;1.00;;;;;15.28;84.33;100140.22;5037211;28;45302;-65
2022/12/31 03:07:27;;;;;;;;;1.67;1.67;;;;;15.22;84.45;100123.88;5035944;28;45542;-64
2022/12/31 03:09:53;;;;;;;;;1.00;1.00;;;;;15.30;84.31;100133.03;5037711;28;45439;-64
2022/12/31 03:15:20;;;;;;;;;0.00;0.00;;;;;15.12;84.22;100110.41;5037379;28;45375;-65
2022/12/31 03:17:47;;;;;;;;;0.00;0.00;;;;;15.29;83.36;100157.81;5036096;28;45466;-61
2022/12/31 03:22:56;;;;;;;;;1.00;1.00;;;;;15.24;83.29;100136.09;5036678;28;45431;-65
2022/12/31 03:25:39;;;;;;;;;0.00;0.00;;;;;15.28;83.46;100145.53;5036836;28;45481;-63
2022/12/31 03:28:13;;;;;;;;;1.33;1.33;;;;;15.28;83.27;100157.91;5036709;28;46110;-64
2022/12/31 03:30:41;;;;;;;;;0.33;0.33;;;;;15.28;83.42;100165.84;5036759;28;45317;-62
2022/12/31 03:33:07;;;;;;;;;1.33;1.33;;;;;15.27;83.17;100158.88;5036578;28;45456;-61
2022/12/31 03:35:35;;;;;;;;;0.00;0.00;;;;;15.05;83.09;100128.50;5036794;28;45431;-64
2022/12/31 03:38:01;;;;;;;;;1.00;1.00;;;;;15.22;82.77;100177.72;5036204;28;46142;-64
2022/12/31 03:40:29;;;;;;;;;70.33;61.00;;;;;15.22;82.87;100159.19;5036331;28;45452;-64
2022/12/31 03:42:55;;;;;;;;;1.00;1.00;;;;;15.21;82.77;100176.03;5018853;28;45293;-64
2022/12/31 03:45:20;;;;;;;;;1.00;1.00;;;;;15.19;82.54;100185.88;5037166;28;45229;-65
2022/12/31 03:47:46;;;;;;;;;1.00;1.00;;;;;15.19;82.80;100170.81;5036478;28;46170;-64
2022/12/31 03:50:13;;;;;;;;;1.00;1.00;;;;;15.18;82.75;100176.22;5036788;28;45347;-64
2022/12/31 03:52:39;;;;;;;;;2.75;2.75;;;;;15.17;82.27;100172.72;5036583;28;45305;-65
2022/12/31 03:55:05;;;;;;;;;1.00;1.00;;;;;15.19;82.28;100177.94;5037973;28;45956;-65
2022/12/31 03:57:31;;;;;;;;;2.00;2.00;;;;;15.18;81.98;100178.88;5036068;28;46972;-65
2022/12/31 03:59:56;;;;;;;;;1.33;1.33;;;;;15.16;82.30;100156.94;5036096;28;45356;-66
2022/12/31 04:02:21;;;;;;;;;0.00;0.00;;;;;15.17;81.98;100169.25;5036217;28;46238;-63
2022/12/31 04:04:47;;;;;;;;;2.00;2.00;;;;;15.20;82.22;100182.28;5036876;28;45369;-65
2022/12/31 04:07:12;;;;;;;;;1.00;1.00;;;;;15.15;82.11;100165.84;5036508;28;46436;-65
2022/12/31 04:09:37;;;;;;;;;2.00;2.00;;;;;15.18;81.87;100178.88;5036086;28;45419;-64
2022/12/31 04:12:03;;;;;;;;;1.67;1.67;;;;;15.16;81.81;100176.31;5036417;28;45385;-64
2022/12/31 04:14:28;;;;;;;;;2.00;2.00;;;;;15.17;81.79;100161.28;5036429;28;45270;-66
2022/12/31 04:16:54;;;;;;;;;3.00;3.00;;;;;15.13;81.60;100165.94;5038404;28;45401;-65
2022/12/31 04:19:19;;;;;;;;;1.67;1.67;;;;;15.14;81.53;100167.63;5035998;28;45321;-64
2022/12/31 04:21:45;;;;;;;;;2.00;2.00;;;;;15.13;81.26;100168.56;5036245;28;45355;-64
2022/12/31 04:24:10;;;;;;;;;2.00;2.00;;;;;15.09;81.62;100158.31;5035928;28;45596;-63
2022/12/31 04:26:36;;;;;;;;;2.00;2.00;;;;;15.08;81.53;100143.38;5035835;28;45304;-65
2022/12/31 04:29:01;;;;;;;;;3.00;3.00;;;;;15.06;81.42;100127.56;5017735;28;45552;-63
2022/12/31 04:31:26;;;;;;;;;1.00;1.00;;;;;15.04;81.36;100151.50;5035955;28;45420;-64
2022/12/31 04:33:52;;;;;;;;;0.00;0.00;;;;;15.04;81.32;100143.56;5035821;28;45486;-64
2022/12/31 04:36:17;;;;;;;;;2.00;2.00;;;;;14.96;81.29;100156.47;5035417;28;45872;-62
2022/12/31 04:38:43;;;;;;;;;2.67;2.67;;;;;15.00;81.66;100173.84;5035590;28;45293;-66
2022/12/31 04:41:17;;;;;;;;;4.25;4.25;;;;;15.01;81.27;100179.97;5036143;28;45402;-65
2022/12/31 04:43:52;;;;;;;;;0.75;0.75;;;;;15.01;81.34;100194.09;5036518;28;45313;-63
2022/12/31 04:46:20;;;;;;;;;1.00;1.00;;;;;15.04;81.32;100177.13;5035670;28;46824;-63
2022/12/31 04:48:46;;;;;;;;;1.25;1.25;;;;;15.04;81.15;100174.47;5035536;28;45350;-65
2022/12/31 04:51:12;;;;;;;;;1.00;1.00;;;;;15.04;81.20;100162.09;5035447;28;45297;-63
2022/12/31 04:53:38;;;;;;;;;2.75;2.75;;;;;15.08;81.06;100180.44;5018987;28;45427;-62
2022/12/31 04:56:04;;;;;;;;;2.67;1.33;;;;;15.09;80.75;100168.91;5014259;28;45442;-63
2022/12/31 04:58:30;;;;;;;;;1.00;1.00;;;;;15.11;80.77;100174.94;5015116;28;45213;-63
2022/12/31 05:00:55;;;;;;;;;2.00;2.00;;;;;15.11;80.67;100165.19;5015580;28;45346;-63
2022/12/31 05:03:23;;;;;;;;;1.33;1.33;;;;;15.12;81.01;100168.69;5015601;28;45373;-62
2022/12/31 05:05:49;;;;;;;;;2.00;2.00;;;;;15.11;80.57;100167.00;5015258;28;46414;-63
2022/12/31 05:08:16;;;;;;;;;2.00;2.00;;;;;15.10;80.44;100160.84;5015578;28;45433;-63
2022/12/31 05:10:44;;;;;;;;;1.00;1.00;;;;;15.14;80.54;100174.75;5015297;28;45242;-64
2022/12/31 05:13:10;;;;;;;;;1.50;1.50;;;;;15.12;80.42;100182.78;5015466;28;45531;-62
2022/12/31 05:15:36;;;;;;;;;1.25;1.25;;;;;15.10;80.38;100178.53;5015060;28;45560;-63
2022/12/31 05:18:01;;;;;;;;;3.00;3.00;;;;;15.14;80.38;100185.34;5014669;28;48633;-64
2022/12/31 05:20:27;;;;;;;;;2.25;2.25;;;;;15.14;80.44;100153.56;5014490;28;45353;-66
2022/12/31 05:22:52;;;;;;;;;1.00;1.00;;;;;15.15;80.22;100192.34;5014069;28;45368;-64
2022/12/31 05:25:18;;;;;;;;;3.00;3.00;;;;;15.08;80.34;100188.38;5014652;28;45463;-65
2022/12/31 05:27:44;;;;;;;;;2.50;2.50;;;;;15.14;80.30;100196.75;4998088;28;45272;-66
2022/12/31 05:30:09;;;;;;;;;1.75;1.75;;;;;15.14;80.28;100201.22;5014931;28;45462;-64
2022/12/31 05:32:35;;;;;;;;;2.00;2.00;;;;;15.06;80.05;100192.94;5015284;28;45591;-63
2022/12/31 05:35:00;;;;;;;;;2.00;2.00;;;;;15.11;79.82;100210.22;5015056;28;45406;-62
2022/12/31 05:37:27;;;;;;;;;2.50;2.00;;;;;15.08;79.91;100204.28;5015123;28;45247;-64
2022/12/31 05:39:53;;;;;;;;;2.25;2.25;;;;;15.12;79.90;100221.69;5016166;28;45179;-63
2022/12/31 05:42:18;;;;;;;;;2.00;2.00;;;;;15.11;80.04;100214.69;5017086;28;45558;-64
2022/12/31 05:44:43;;;;;;;;;2.50;2.50;;;;;15.12;79.79;100219.03;5015888;28;54628;-64
2022/12/31 05:47:09;;;;;;;;;3.75;3.75;;;;;15.11;80.02;100230.56;5015062;28;45234;-67
2022/12/31 05:49:34;;;;;;;;;2.75;2.75;;;;;15.11;79.99;100233.22;5014903;28;45270;-65
2022/12/31 05:52:00;;;;;;;;;3.00;3.00;;;;;15.08;79.50;100221.00;5015313;28;45286;-64
2022/12/31 05:54:25;;;;;;;;;2.50;2.50;;;;;15.10;79.42;100234.16;5014763;28;46348;-65
2022/12/31 05:56:50;;;;;;;;;3.25;3.00;;;;;15.07;79.58;100221.97;5015218;28;45337;-67
2022/12/31 05:59:16;;;;;;;;;2.33;2.33;;;;;15.06;79.68;100219.44;5015023;28;45334;-64
2022/12/31 06:01:41;;;;;;;;;2.00;2.00;;;;;15.02;79.45;100218.75;5014963;28;45433;-65
2022/12/31 06:04:06;;;;;;;;;2.50;2.50;;;;;15.03;79.96;100229.28;5014109;28;58062;-66
2022/12/31 06:06:31;;;;;;;;;2.00;2.00;;;;;14.95;79.35;100214.81;5012956;28;49225;-65
2022/12/31 06:08:57;;;;;;;;;3.00;3.00;;;;;14.96;79.60;100211.22;5014520;28;45512;-64
2022/12/31 06:11:22;;;;;;;;;2.67;2.67;;;;;14.99;79.77;100224.25;5014945;28;45679;-67
2022/12/31 06:13:47;;;;;;;;;1.33;1.33;;;;;14.98;79.76;100223.44;5015059;28;46206;-65
2022/12/31 06:16:13;;;;;;;;;2.00;2.00;;;;;14.96;79.52;100240.34;4996500;28;49479;-66
2022/12/31 06:18:38;;;;;;;;;3.00;3.00;;;;;14.98;79.65;100238.44;5014545;28;45484;-65
2022/12/31 06:21:04;;;;;;;;;4.00;4.00;;;;;14.93;79.09;100243.19;5014768;28;45359;-62
2022/12/31 06:23:29;;;;;;;;;3.00;3.00;;;;;14.94;79.69;100227.22;5014248;28;46474;-63
2022/12/31 06:25:55;;;;;;;;;2.00;2.00;;;;;14.93;79.65;100245.84;5014507;28;45395;-62
2022/12/31 06:28:20;;;;;;;;;3.00;3.00;;;;;14.93;79.67;100253.78;5014984;28;45351;-62
2022/12/31 06:30:46;;;;;;;;;3.00;3.00;;;;;14.94;79.55;100253.69;5014523;28;45270;-63
2022/12/31 06:33:11;;;;;;;;;2.75;2.75;;;;;14.94;79.47;100259.00;5014814;28;45977;-63
2022/12/31 06:35:36;;;;;;;;;2.00;2.00;;;;;14.96;79.33;100253.59;4996814;28;45477;-63
2022/12/31 06:38:02;;;;;;;;;1.75;1.75;;;;;14.97;79.23;100255.28;5012805;28;45413;-63
2022/12/31 06:40:27;;;;;;;;;4.50;4.00;;;;;14.99;79.09;100261.34;5014473;28;45317;-63
2022/12/31 06:42:53;;;;;;;;;3.25;3.25;;;;;14.97;78.86;100257.94;5017442;28;45301;-62
2022/12/31 06:45:18;;;;;;;;;3.00;3.00;;;;;14.99;78.80;100263.97;5017505;28;45344;-65
2022/12/31 06:47:44;;;;;;;;;1.25;1.25;;;;;14.95;78.70;100263.34;5017611;28;45415;-64
2022/12/31 06:50:09;;;;;;;;;3.00;3.00;;;;;15.00;78.79;100269.19;5017188;28;54493;-64
2022/12/31 06:52:35;;;;;;;;;2.50;2.50;;;;;15.04;78.65;100262.75;5017274;28;46117;-64
2022/12/31 06:55:00;;;;;;;;;2.00;2.00;;;;;15.05;78.57;100276.84;5017323;28;45351;-66
2022/12/31 06:57:26;;;;;;;;;5.75;4.00;;;;;15.07;78.36;100276.75;5017651;28;45126;-66
2022/12/31 06:59:51;;;;;;;;;3.00;3.00;;;;;15.08;78.64;100287.22;5019320;28;45481;-64
2022/12/31 07:02:48;;;;;;;;;2.00;2.00;;;;;15.09;78.50;100282.81;5017353;28;48075;-64
2022/12/31 07:05:37;;;;;;;;;3.00;3.00;;;;;15.10;78.26;100290.63;5017339;28;45299;-65
2022/12/31 07:08:17;;;;;;;;;3.00;3.00;;;;;15.09;78.34;100280.16;5015912;28;45385;-64
2022/12/31 07:10:55;;;;;;;;;3.00;3.00;;;;;15.12;78.18;100290.56;5017188;28;45326;-63
2022/12/31 07:13:23;;;;;;;;;3.50;3.50;;;;;15.13;78.22;100286.94;5017191;28;46136;-64
2022/12/31 07:16:19;;;;;;;;;3.00;3.00;;;;;15.14;77.72;100276.25;5016899;28;45346;-64
2022/12/31 07:18:51;;;;;;;;;3.00;3.00;;;;;15.14;77.86;100293.94;5016803;28;45267;-62
2022/12/31 07:21:28;;;;;;;;;3.00;3.00;;;;;15.15;77.79;100275.28;5017371;28;45418;-65
2022/12/31 07:23:53;;;;;;;;;2.25;2.25;;;;;15.16;77.53;100282.28;5017202;28;46906;-63
2022/12/31 07:26:49;;;;;;;;;3.00;3.00;;;;;15.17;77.63;100283.16;5017174;28;45392;-63
2022/12/31 07:29:30;;;;;;;;;3.25;3.25;;;;;15.17;77.58;100275.22;5006529;28;45210;-64
2022/12/31 07:32:21;;;;;;;;;2.50;2.50;;;;;15.18;77.35;100280.41;5019367;28;45418;-65
2022/12/31 07:35:17;;;;;;;;;4.00;4.00;;;;;15.17;77.32;100302.53;5018270;28;45720;-65
2022/12/31 07:38:07;;;;;;;;;3.00;3.00;;;;;15.18;77.35;100304.22;5017557;28;45339;-64
2022/12/31 07:40:50;;;;;;;;;2.25;2.25;;;;;15.18;77.49;100309.53;5017171;28;45293;-64
2022/12/31 07:43:47;;;;;;;;;7.00;7.00;;;;;15.19;77.27;100302.44;5017004;28;45482;-65
2022/12/31 07:46:15;;;;;;;;;3.00;3.00;;;;;15.19;77.26;100323.66;5017086;28;46410;-63
2022/12/31 07:48:40;;;;;;;;;3.50;3.50;;;;;15.14;77.09;100317.78;5017416;28;45329;-64
2022/12/31 07:51:08;;;;;;;;;3.50;3.50;;;;;15.21;76.85;100331.47;5017526;28;45617;-67
2022/12/31 07:53:34;;;;;;;;;3.25;3.25;;;;;15.21;76.84;100318.25;5016752;28;45552;-63
2022/12/31 07:56:02;;;;;;;;;4.00;4.00;;;;;15.22;76.60;100338.47;5016361;28;46521;-62
2022/12/31 07:58:27;;;;;;;;;3.00;3.00;;;;;15.21;76.79;100348.25;5016661;28;45323;-63
2022/12/31 08:00:56;;;;;;;;;5.00;5.00;;;;;15.22;76.59;100359.69;5016180;28;45322;-63
2022/12/31 08:03:45;;;;;;;;;2.25;2.25;;;;;15.20;76.58;100346.53;5016439;28;45519;-63
2022/12/31 08:06:18;;;;;;;;;4.00;4.00;;;;;15.20;76.54;100351.84;5016038;28;45433;-63
2022/12/31 08:08:57;;;;;;;;;4.00;4.00;;;;;15.18;76.32;100337.84;5016038;28;45392;-63
2022/12/31 08:11:42;;;;;;;;;4.00;4.00;;;;;15.15;76.21;100336.22;5016292;28;45269;-63
2022/12/31 08:14:12;;;;;;;;;4.00;4.00;;;;;15.12;76.18;100340.88;5016824;28;45411;-64
2022/12/31 08:16:38;;;;;;;;;6.25;6.25;;;;;15.16;75.98;100337.09;5016617;28;46492;-63
2022/12/31 08:19:03;;;;;;;;;4.50;4.50;;;;;15.13;76.13;100348.72;5015657;28;45469;-66
2022/12/31 08:21:50;;;;;;;;;4.75;4.75;;;;;15.14;76.25;100349.59;5015777;28;45310;-63
2022/12/31 08:24:27;;;;;;;;;3.50;3.50;;;;;15.11;75.92;100349.78;5015893;28;45468;-63
2022/12/31 08:26:58;;;;;;;;;4.00;4.00;;;;;15.15;76.07;100364.53;5015416;28;46345;-63
2022/12/31 08:30:02;;;;;;;;;3.50;3.50;;;;;15.15;75.74;100368.00;5015562;28;45386;-66
2022/12/31 08:32:47;;;;;;;;;5.00;5.00;;;;;15.12;75.78;100364.72;5015301;28;45402;-65
2022/12/31 08:35:37;;;;;;;;;3.25;3.25;;;;;15.11;75.55;100358.56;5004912;28;45590;-66
2022/12/31 08:38:18;;;;;;;;;4.75;4.75;;;;;15.08;75.67;100357.91;5015312;28;45603;-67
2022/12/31 08:41:12;;;;;;;;;4.25;4.25;;;;;15.10;75.56;100364.81;5015268;28;46057;-65
2022/12/31 08:43:42;;;;;;;;;5.00;5.00;;;;;15.10;75.31;100374.56;5012244;28;45835;-66
2022/12/31 08:46:21;;;;;;;;;4.00;4.00;;;;;15.10;75.33;100369.28;5015677;28;45262;-65
2022/12/31 08:48:47;;;;;;;;;4.00;4.00;;;;;15.07;75.21;100369.47;5014707;28;46261;-66
2022/12/31 08:51:18;;;;;;;;;4.75;4.75;;;;;15.04;74.77;100378.44;5015059;28;45386;-65
2022/12/31 08:53:43;;;;;;;;;1.75;1.75;;;;;15.05;75.21;100388.09;5015485;28;45242;-64
2022/12/31 08:56:26;;;;;;;;;6.00;6.00;;;;;15.04;74.93;100386.38;5015732;28;45206;-66
2022/12/31 08:59:10;;;;;;;;;4.25;4.25;;;;;15.04;74.80;100387.25;4999635;28;47309;-66
2022/12/31 09:02:00;;;;;;;;;5.00;5.00;;;;;14.98;75.11;100379.69;5015784;28;45473;-65
2022/12/31 09:05:04;;;;;;;;;5.25;4.00;;;;;15.03;74.79;100385.53;5014911;28;45333;-65
2022/12/31 09:08:08;;;;;;;;;4.50;4.50;;;;;15.04;74.99;100403.13;5015477;28;45259;-65
2022/12/31 09:10:45;;;;;;;;;4.50;4.50;;;;;14.97;74.52;100393.00;4983344;28;48689;-66
2022/12/31 09:13:28;;;;;;;;;4.00;4.00;;;;;15.04;74.80;100403.13;5015277;28;45259;-63
2022/12/31 09:16:06;;;;;;;;;4.00;4.00;;;;;15.04;74.48;100404.94;5013643;28;45457;-65
2022/12/31 09:18:37;;;;;;;;;4.75;4.75;;;;;15.04;74.29;100391.69;5015705;28;45376;-67
2022/12/31 09:21:02;;;;;;;;;4.00;4.00;;;;;15.06;73.90;100389.78;5015217;28;46456;-66
2022/12/31 09:23:28;;;;;;;;;3.00;3.00;;;;;15.10;73.96;100401.06;5014886;28;45369;-64
2022/12/31 09:26:05;;;;;;;;;5.00;5.00;;;;;15.15;74.11;100404.28;5014954;28;45405;-63
2022/12/31 09:29:17;;;;;;;;;5.00;5.00;;;;;15.18;73.70;100409.38;5015317;28;45351;-64
2022/12/31 09:32:13;;;;;;;;;3.75;3.75;;;;;15.22;73.26;100407.38;5013918;28;45487;-64
2022/12/31 09:34:50;;;;;;;;;6.00;6.00;;;;;15.25;73.28;100407.19;5014291;28;45202;-64
2022/12/31 09:37:41;;;;;;;;;5.75;5.75;;;;;15.27;73.11;100398.19;5014690;28;45242;-63
2022/12/31 09:40:22;;;;;;;;;6.25;5.25;;;;;15.22;72.90;100378.22;4986055;28;45557;-62
2022/12/31 09:43:08;;;;;;;;;5.00;5.00;;;;;15.29;72.63;100406.03;5014455;28;46235;-66
2022/12/31 09:45:58;;;;;;;;;4.00;4.00;;;;;15.29;72.35;100392.78;5014789;28;45258;-63
2022/12/31 09:48:26;;;;;;;;;4.75;4.75;;;;;15.28;72.37;100409.63;5014803;28;45327;-66
2022/12/31 09:51:15;;;;;;;;;6.50;5.00;;;;;15.29;72.35;100416.63;5014850;28;45265;-65
2022/12/31 09:53:53;;;;;;;;;5.00;5.00;;;;;15.32;72.19;100411.16;5014867;28;46575;-66
2022/12/31 09:56:44;;;;;;;;;3.75;3.75;;;;;15.33;71.81;100408.41;5014696;28;45395;-66
2022/12/31 09:59:18;;;;;;;;;6.00;6.00;;;;;15.31;71.91;100404.13;5014283;28;45375;-65
2022/12/31 10:01:56;;;;;;;;;9.50;9.25;;;;;15.36;71.58;100414.47;5014877;28;45374;-62
2022/12/31 10:04:37;;;;;;;;;5.00;5.00;;;;;15.37;71.39;100417.00;5014568;28;46415;-66
2022/12/31 10:07:31;;;;;;;;;3.00;3.00;;;;;15.38;71.44;100394.88;5015072;28;45441;-65
2022/12/31 10:10:08;;;;;;;;;5.25;5.25;;;;;15.40;71.22;100389.47;5014023;28;45439;-67
2022/12/31 10:12:43;;;;;;;;;5.75;5.75;;;;;15.39;71.00;100401.03;5014614;28;45346;-66
2022/12/31 10:15:40;;;;;;;;;4.75;4.75;;;;;15.45;71.21;100416.53;5013949;28;45413;-64
2022/12/31 10:18:24;;;;;;;;;7.25;6.25;;;;;15.45;71.48;100403.28;5016770;28;45445;-63
2022/12/31 10:21:28;;;;;;;;;7.75;7.75;;;;;15.47;70.41;100402.25;5016929;28;45345;-63
2022/12/31 10:24:31;;;;;;;;;6.00;6.00;;;;;15.50;70.55;100387.09;4986336;28;45556;-66
2022/12/31 10:27:08;;;;;;;;;7.00;7.00;;;;;15.51;70.27;100386.16;5017132;28;45406;-67
2022/12/31 10:29:56;;;;;;;;;4.00;4.00;;;;;15.53;70.02;100369.19;5017826;28;45408;-66
2022/12/31 10:32:53;;;;;;;;;5.00;5.00;;;;;15.58;69.93;100387.47;5017223;28;45404;-65
2022/12/31 10:35:52;;;;;;;;;5.00;5.00;;;;;15.62;69.91;100384.50;4986311;28;45366;-64
2022/12/31 10:38:44;;;;;;;;;4.75;4.75;;;;;15.66;69.34;100406.38;5016951;28;46442;-66
2022/12/31 10:41:38;;;;;;;;;6.00;6.00;;;;;15.69;69.19;100384.09;5017721;28;45507;-66
2022/12/31 10:44:35;;;;;;;;;5.25;5.25;;;;;15.76;68.90;100382.75;5017635;28;45387;-65
2022/12/31 10:47:19;;;;;;;;;5.00;5.00;;;;;15.79;68.80;100382.53;5014366;28;45290;-66
2022/12/31 10:50:14;;;;;;;;;5.50;5.50;;;;;15.86;68.76;100383.84;5017040;28;45424;-65
2022/12/31 10:53:05;;;;;;;;;4.00;4.00;;;;;15.93;68.24;100383.50;5018003;28;45290;-65
2022/12/31 10:55:55;;;;;;;;;4.50;4.50;;;;;15.97;68.10;100374.38;5015674;28;45412;-65
2022/12/31 10:58:26;;;;;;;;;5.75;5.75;;;;;16.00;67.59;100360.91;5017150;28;45483;-65
2022/12/31 11:01:12;;;;;;;;;3.50;3.50;;;;;16.04;67.41;100349.16;5016681;28;46116;-66
2022/12/31 11:03:43;;;;;;;;;12.25;12.25;;;;;16.08;67.50;100366.56;5017157;28;45795;-65
2022/12/31 11:06:25;;;;;;;;;5.00;5.00;;;;;16.11;67.05;100355.72;5017142;28;45266;-63
2022/12/31 11:09:11;;;;;;;;;3.50;3.50;;;;;16.17;66.68;100362.41;5017123;28;45500;-65
2022/12/31 11:11:57;;;;;;;;;4.75;4.75;;;;;16.22;66.55;100362.97;5017133;28;45409;-66
2022/12/31 11:14:28;;;;;;;;;5.00;5.00;;;;;16.26;66.50;100360.97;5017097;28;45390;-64
2022/12/31 11:17:03;;;;;;;;;4.50;4.50;;;;;16.30;66.29;100373.06;5015523;28;45850;-64
2022/12/31 11:19:40;;;;;;;;;5.50;5.50;;;;;16.32;66.12;100353.41;5017606;28;45194;-66
2022/12/31 11:22:19;;;;;;;;;6.00;6.00;;;;;16.34;65.69;100345.38;5016879;28;45324;-65
2022/12/31 11:25:21;;;;;;;;;5.00;5.00;;;;;16.37;65.38;100353.13;5014912;28;45729;-63
2022/12/31 11:28:18;;;;;;;;;5.00;5.00;;;;;16.37;65.25;100345.16;4984029;28;45527;-66
2022/12/31 11:31:08;;;;;;;;;3.50;3.50;;;;;16.38;65.23;100336.22;5016972;28;45246;-64
2022/12/31 11:33:58;;;;;;;;;6.00;6.00;;;;;16.36;65.01;100338.13;5017016;28;46664;-64
2022/12/31 11:36:42;;;;;;;;;4.50;4.50;;;;;16.41;64.80;100343.13;5018292;28;45377;-65
2022/12/31 11:39:20;;;;;;;;;6.50;6.50;;;;;16.43;64.64;100351.81;5018558;28;45394;-63
2022/12/31 11:41:52;;;;;;;;;4.00;4.00;;;;;16.43;63.85;100343.88;5016896;28;45494;-65
2022/12/31 11:44:36;;;;;;;;;4.00;4.00;;;;;16.41;64.48;100345.78;5016423;28;45433;-64
2022/12/31 11:47:02;;;;;;;;;4.25;4.25;;;;;16.46;64.65;100356.97;5016249;28;45504;-65
2022/12/31 11:49:40;;;;;;;;;1.00;1.00;;;;;16.46;63.87;100357.78;5016145;28;45406;-67
2022/12/31 11:52:20;;;;;;;;;4.25;4.25;;;;;16.47;63.99;100351.53;5016402;28;45398;-67
2022/12/31 11:55:04;;;;;;;;;4.75;4.75;;;;;16.48;63.92;100349.72;5016205;28;45417;-66
2022/12/31 11:57:37;;;;;;;;;4.00;4.00;;;;;16.47;63.67;100343.56;5016497;28;45346;-65
2022/12/31 12:00:17;;;;;;;;;4.75;4.75;;;;;16.50;63.83;100351.31;4997941;28;45277;-66
2022/12/31 12:02:52;;;;;;;;;10.50;10.00;;;;;16.53;63.87;100333.47;5016351;28;45428;-65